Airfield :
LOGIN :

Register | Disclaimer

   EN    FR    IT 

 










Legend :    VFR   Marginal VFR   IFR   Intensive IFR   Very Intensive IFR
Visi :
Ceiling :
>= 8 km
>= 3000ft
5 to 8 km
1000 to 3000 ft
1500m to 5 km
500 to 1000 ft
800 to 1500m
200 to 500 ft
< 800m
< 200 ft
Symbols :   Thunderstorms  Fog  Heavy snow  Heavy precipitations  Wind > 20 kt
SIGMETs :     Misc.  Thunderstorms  Icing  Turbulence  Mountain Waves  Volcanic Ashes






- Airport Elevation : 63 ft
- IATA code : BZM


EHWO - Woensdrecht Airbase

CURRENT METAR :
  • 271217Z AUTO 20009KT 140V240 6000 -SHRA FEW012 BKN015 BKN018 18/16 Q1011 WHT TEMPO 21015G31KT 3000 RA SHRA SCT012 SCT018 SCT020CB

EXPIRED METARs :
  • 271201Z AUTO 21013G31KT 180V250 6000 +DZRA FEW017 BKN020 BKN031 18/15 Q1011 WHT TEMPO 21015G31KT 3000 RA SHRA SCT012 SCT018 SCT020CB
  • 271159Z AUTO 21011G31KT 170V250 9999 +DZ SCT019 BKN022 BKN029 19/15 Q1011 WHT TEMPO 19015G31KT 3000 RA SHRA SCT012 SCT018 SCT020CB
  • 271134Z AUTO 19008KT 160V230 9999 FEW015CB BKN021 OVC024 19/15 Q1011 WHT TEMPO 19015G27KT 3000 RA SHRA SCT012 SCT020CB BKN045
  • 271129Z AUTO 19009G19KT 140V250 9999 -RA FEW015CB SCT023 BKN027 BKN030 19/15 Q1011 WHT TEMPO 19015G27KT 3000 RA SHRA SCT012 SCT020CB BKN045
  • 271125Z AUTO 19011G21KT 140V250 9999 -RA SCT023 BKN027 BKN030 19/15 Q1011 WHT TEMPO 19015G27KT 3000 RA SHRA SCT012 SCT020CB BKN045
  • 271114Z AUTO 19010G23KT 130V230 9999 -RA FEW020 SCT026 OVC079 19/15 Q1010 BLU TEMPO 19014G25KT SCT018 SCT025
  • 271101Z AUTO 18011KT 140V220 9999 FEW020 SCT025 BKN086 19/15 Q1010 BLU TEMPO 19014G25KT SCT018 SCT025
  • 271055Z AUTO 18009G20KT 130V250 9999 SCT019 SCT024 OVC095 19/15 Q1011 WHT TEMPO 19014G25KT SCT018 SCT025
  • 271025Z AUTO 19012G22KT 120V240 9999 FEW069 SCT089 BKN095 19/15 Q1011 BLU TEMPO 19012G23KT
  • 270955Z AUTO 19010KT 130V240 9999 FEW063 SCT070 BKN084 18/15 Q1011 BLU TEMPO 19012G23KT
  • 270925Z AUTO 19009G21KT 140V230 9999 FEW082 SCT087 BKN099 18/15 Q1011 BLU TEMPO 19012G23KT

TAF TAF EHWO
Valid from the 27 at 09:00 until the 27 at 21:00 UTC


270843Z 2709/2721 19010KT CAVOK
BECMG 2709/2711 19012G22KT
TEMPO 2711/2715 25014G28KT 4500 -RA FEW018 SCT022 BKN035
PROB40
TEMPO 2712/2715 27015G32KT 2500 SHRA RA SCT012 SCT018CB BKN020
BECMG 2714/2717 23008KT



MET'MAP, your aeronautical weather chart ! - Copyright ORBIFLY December 2007 - Disclaimer

ORBIFLY MET'MAP TEAM :

Programming & Development : Alexandra Zaïnal
Concept & original design : Baudouin d'Aumeries
Assistance for programming : Marc-Olivier Méhu
Technical & hardware support : Manuel Goepfert

Contact : metmap@orbifly.com




SOURCES & CREDITS :

   NOAA